This is the latest recevied weather packets stored in our database for station/object NN5DX-13. If no packets are shown the sender has not sent any weather packets the latest 10 day(s).
| Time | Temp. | Humidity | Pressure | Rain* | Wind** | Luminosity | Snow |
|---|---|---|---|---|---|---|---|
| 1788125420 | 37.78° C | 26% | 1013.3 hPa | 0 mm | - | - | - |
| 1788125119 | 38.33° C | 27% | 1013.5 hPa | 0 mm | - | - | - |
| 1788124819 | 37.78° C | 27% | 1013.6 hPa | 0 mm | - | - | - |
| 1788124520 | 37.78° C | 27% | 1013.6 hPa | 0 mm | - | - | - |
| 1788124219 | 37.22° C | 27% | 1013.5 hPa | 0 mm | - | - | - |
| 1788123920 | 37.78° C | 27% | 1013.9 hPa | 0 mm | - | - | - |
| 1788123620 | 37.78° C | 27% | 1014 hPa | 0 mm | - | - | - |
| 1788123319 | 38.33° C | 27% | 1014.1 hPa | 0 mm | - | - | - |
| 1788123019 | 37.78° C | 27% | 1014.2 hPa | 0 mm | - | - | - |
| 1788122719 | 38.33° C | 27% | 1014.2 hPa | 0 mm | - | - | - |
| 1788122420 | 38.33° C | 27% | 1014.6 hPa | 0 mm | - | - | - |
| 1788122119 | 38.33° C | 27% | 1014.6 hPa | 0 mm | - | - | - |
| 1788121821 | 37.78° C | 27% | 1014.4 hPa | 0 mm | - | - | - |
| 1788121521 | 37.22° C | 29% | 1014.6 hPa | 0 mm | - | - | - |
| 1788121222 | 37.22° C | 29% | 1014.7 hPa | 0 mm | - | - | - |
| 1788120921 | 37.22° C | 27% | 1014.7 hPa | 0 mm | - | - | - |
| 1788120621 | 37.78° C | 27% | 1015 hPa | 0 mm | - | - | - |
| 1788120321 | 37.78° C | 28% | 1015 hPa | 0 mm | - | - | - |
| 1788120021 | 37.22° C | 29% | 1015.1 hPa | 0 mm | - | - | - |
| 1788119721 | 37.22° C | 28% | 1015.2 hPa | 0 mm | - | - | - |
| 1788119422 | 37.22° C | 28% | 1015.1 hPa | 0 mm | - | - | - |
| 1788119121 | 37.78° C | 28% | 1015.4 hPa | 0 mm | - | - | - |
| 1788118821 | 37.22° C | 27% | 1015.4 hPa | 0 mm | - | - | - |
| 1788118521 | 37.22° C | 26% | 1015.4 hPa | 0 mm | - | - | - |
| 1788118221 | 38.33° C | 25% | 1015.7 hPa | 0 mm | - | - | - |
* Rain latest hour (hover to see other rain measurements)
** Current wind speed in m/s (hover to see current wind gust speed)